| Date | Time | Temp. (oF) | Dew Point (oF) | Rel. Hum. (%) | Press. (in.) | Wind Dir. | Wind Speed (mph) | Hourly Rainfall (in.) |
|
|---|---|---|---|---|---|---|---|---|---|
| 1 | 01/21 | 00:00 | 26 | 25 | 97 | 30.04 | NNE | 0 | 0.00 |
| 2 | 01/20 | 23:00 | 26 | 25 | 97 | 30.05 | SSW | 0 | 0.00 |
| 3 | 01/20 | 22:00 | 27 | 26 | 97 | 30.02 | SSE | 0 | 0.00 |
| 4 | miss | miss | miss | miss | miss | miss | miss | miss | |
| 5 | 01/20 | 15:46 | 38 | 30 | 74 | 29.92 | N | 6 | 0.00 |
| 6 | miss | miss | miss | miss | miss | miss | miss | miss | |
| 7 | 01/20 | 15:46 | 38 | 30 | 74 | 29.92 | N | 6 | 0.00 |
| 8 | miss | miss | miss | miss | miss | miss | miss | miss | |
| 9 | 01/20 | 15:46 | 38 | 30 | 74 | 29.92 | N | 6 | 0.00 |
| 10 | 01/20 | 15:00 | 39 | 28 | 65 | 29.91 | SSW | 4 | 0.00 |
| 11 | 01/20 | 14:00 | 40 | 28 | 62 | 29.88 | WNW | 5 | 0.00 |
| 12 | 01/20 | 13:00 | 40 | 28 | 62 | 29.88 | WSW | 2 | 0.00 |
| 13 | 01/20 | 12:00 | 40 | 29 | 66 | 29.90 | W | 0 | 0.00 |
| 14 | 01/20 | 11:00 | 38 | 28 | 67 | 29.93 | WNW | 0 | 0.00 |
| 15 | 01/20 | 10:00 | 36 | 29 | 76 | 29.93 | NNE | 1 | 0.00 |
| 16 | 01/20 | 09:00 | 32 | 28 | 88 | 29.92 | ENE | 0 | 0.00 |
| 17 | 01/20 | 08:00 | 29 | 26 | 91 | 29.92 | ENE | 0 | 0.00 |
| 18 | 01/20 | 07:00 | 29 | 26 | 89 | 29.92 | SW | 0 | 0.00 |
| 19 | 01/20 | 06:00 | 30 | 26 | 86 | 29.92 | WSW | 3 | 0.00 |
| 20 | 01/20 | 05:00 | 29 | 24 | 83 | 29.90 | SW | 0 | 0.00 |
| 21 | 01/20 | 04:00 | 30 | 24 | 81 | 29.89 | SSW | 0 | 0.00 |
| 22 | 01/20 | 03:00 | 29 | 24 | 84 | 29.89 | SSW | 0 | 0.00 |
| 23 | 01/20 | 02:00 | 31 | 25 | 80 | 29.90 | S | 0 | 0.00 |
| 24 | 01/20 | 01:00 | 32 | 25 | 77 | 29.91 | W | 0 | 0.00 |